Alexander City, Alabama
Current Conditions -  °F | °C
As of 10:55 AM on Thursday 27 Nov 2014 (Local Time) from KALX Reporting Station
Broken Clouds Broken Clouds  
Wind Chill: 44°   Ceiling: 4400
Heat Index: 49°   Visibility: 10mi
Dew Point: 28°   Wind: 13mph
Humidity: 44%   Direction: 340°NNW
Pressure: 30.36"   Gusts: 20mph
Location:  32.94°N, 85.95°W
Report Text: KALX 271655Z AUTO 34011G17KT 10SM SCT036 BKN044 10/M02 A3036 RMK AO2 T00951022
Loading
Personal Weather Stations






























Interactive Weather Map New forecast layout! Learn more

10-Day Weather Forecast

Advertisements
Track Severe Weather on mobile